sensor_id;sensor_type;location;lat;lon;timestamp;temperature;humidity
60717;DHT22;46566;52.700;6.192;2022-11-15T00:01:58;7.30;99.90
60717;DHT22;46566;52.700;6.192;2022-11-15T00:04:42;7.30;99.90
60717;DHT22;46566;52.700;6.192;2022-11-15T00:07:26;7.40;99.90
60717;DHT22;46566;52.700;6.192;2022-11-15T00:10:10;7.30;99.90
60717;DHT22;46566;52.700;6.192;2022-11-15T00:12:54;7.30;99.90
60717;DHT22;46566;52.700;6.192;2022-11-15T00:15:40;7.30;99.90
60717;DHT22;46566;52.700;6.192;2022-11-15T00:18:32;7.40;99.90
60717;DHT22;46566;52.700;6.192;2022-11-15T00:21:17;7.40;99.90
60717;DHT22;46566;52.700;6.192;2022-11-15T00:24:01;7.30;99.90
60717;DHT22;46566;52.700;6.192;2022-11-15T00:26:45;7.30;99.90
60717;DHT22;46566;52.700;6.192;2022-11-15T00:29:29;7.30;99.90
60717;DHT22;46566;52.700;6.192;2022-11-15T00:32:14;7.30;99.90
60717;DHT22;46566;52.700;6.192;2022-11-15T00:34:58;7.30;99.90
60717;DHT22;46566;52.700;6.192;2022-11-15T00:37:42;7.30;99.90
60717;DHT22;46566;52.700;6.192;2022-11-15T00:40:26;7.30;99.90
60717;DHT22;46566;52.700;6.192;2022-11-15T00:43:11;7.30;99.90
60717;DHT22;46566;52.700;6.192;2022-11-15T00:45:55;7.30;99.90
60717;DHT22;46566;52.700;6.192;2022-11-15T00:48:40;7.30;99.90
60717;DHT22;46566;52.700;6.192;2022-11-15T00:51:24;7.30;99.90
60717;DHT22;46566;52.700;6.192;2022-11-15T00:54:08;7.30;99.90
60717;DHT22;46566;52.700;6.192;2022-11-15T00:56:52;7.30;99.90
60717;DHT22;46566;52.700;6.192;2022-11-15T00:59:36;7.30;99.90
60717;DHT22;46566;52.700;6.192;2022-11-15T01:02:21;7.30;99.90
60717;DHT22;46566;52.700;6.192;2022-11-15T01:05:06;7.30;99.90
60717;DHT22;46566;52.700;6.192;2022-11-15T01:07:54;7.30;99.90
60717;DHT22;46566;52.700;6.192;2022-11-15T01:10:40;7.30;99.90
60717;DHT22;46566;52.700;6.192;2022-11-15T01:13:24;7.30;99.90
60717;DHT22;46566;52.700;6.192;2022-11-15T01:16:11;7.30;99.90
60717;DHT22;46566;52.700;6.192;2022-11-15T01:18:56;7.30;99.90
60717;DHT22;46566;52.700;6.192;2022-11-15T01:21:40;7.30;99.90
60717;DHT22;46566;52.700;6.192;2022-11-15T01:24:24;7.30;99.90
60717;DHT22;46566;52.700;6.192;2022-11-15T01:27:09;7.30;99.90
60717;DHT22;46566;52.700;6.192;2022-11-15T01:29:54;7.30;99.90
60717;DHT22;46566;52.700;6.192;2022-11-15T01:32:38;7.40;99.90
60717;DHT22;46566;52.700;6.192;2022-11-15T01:35:22;7.30;99.90
60717;DHT22;46566;52.700;6.192;2022-11-15T01:38:07;7.40;99.90
60717;DHT22;46566;52.700;6.192;2022-11-15T01:40:51;7.40;99.90
60717;DHT22;46566;52.700;6.192;2022-11-15T01:43:36;7.40;99.90
60717;DHT22;46566;52.700;6.192;2022-11-15T01:46:29;7.40;99.90
60717;DHT22;46566;52.700;6.192;2022-11-15T01:49:19;7.40;99.90
60717;DHT22;46566;52.700;6.192;2022-11-15T01:52:09;7.40;99.90
60717;DHT22;46566;52.700;6.192;2022-11-15T01:55:16;7.40;99.90
60717;DHT22;46566;52.700;6.192;2022-11-15T01:58:03;7.40;99.90
60717;DHT22;46566;52.700;6.192;2022-11-15T02:00:49;7.40;99.90
60717;DHT22;46566;52.700;6.192;2022-11-15T02:03:44;7.50;99.90
60717;DHT22;46566;52.700;6.192;2022-11-15T02:06:30;7.50;99.90
60717;DHT22;46566;52.700;6.192;2022-11-15T02:09:16;7.50;99.90
60717;DHT22;46566;52.700;6.192;2022-11-15T02:12:01;7.60;99.90
60717;DHT22;46566;52.700;6.192;2022-11-15T02:14:48;7.60;99.90
60717;DHT22;46566;52.700;6.192;2022-11-15T02:32:44;7.70;99.90
60717;DHT22;46566;52.700;6.192;2022-11-15T02:38:29;7.80;99.90
60717;DHT22;46566;52.700;6.192;2022-11-15T02:41:24;7.80;99.90
60717;DHT22;46566;52.700;6.192;2022-11-15T02:47:03;7.80;99.90
60717;DHT22;46566;52.700;6.192;2022-11-15T02:50:04;7.90;99.90
60717;DHT22;46566;52.700;6.192;2022-11-15T02:52:51;7.90;99.90
60717;DHT22;46566;52.700;6.192;2022-11-15T02:55:41;7.90;99.90
60717;DHT22;46566;52.700;6.192;2022-11-15T02:58:53;7.90;99.90
60717;DHT22;46566;52.700;6.192;2022-11-15T03:08:06;8.00;99.90
60717;DHT22;46566;52.700;6.192;2022-11-15T03:17:18;8.10;99.90
60717;DHT22;46566;52.700;6.192;2022-11-15T03:20:07;8.10;99.90
60717;DHT22;46566;52.700;6.192;2022-11-15T03:22:54;8.20;99.90
60717;DHT22;46566;52.700;6.192;2022-11-15T03:25:46;8.20;99.90
60717;DHT22;46566;52.700;6.192;2022-11-15T03:28:58;8.20;99.90
60717;DHT22;46566;52.700;6.192;2022-11-15T03:31:48;8.30;99.90
60717;DHT22;46566;52.700;6.192;2022-11-15T03:34:53;8.30;99.90
60717;DHT22;46566;52.700;6.192;2022-11-15T03:40:45;8.30;99.90
60717;DHT22;46566;52.700;6.192;2022-11-15T03:46:32;8.50;99.90
60717;DHT22;46566;52.700;6.192;2022-11-15T03:49:22;8.50;99.90
60717;DHT22;46566;52.700;6.192;2022-11-15T03:52:10;8.50;99.90
60717;DHT22;46566;52.700;6.192;2022-11-15T03:54:56;8.50;99.90
60717;DHT22;46566;52.700;6.192;2022-11-15T03:57:40;8.50;99.90
60717;DHT22;46566;52.700;6.192;2022-11-15T04:00:25;8.50;99.90
60717;DHT22;46566;52.700;6.192;2022-11-15T04:03:09;8.60;99.90
60717;DHT22;46566;52.700;6.192;2022-11-15T04:05:54;8.60;99.90
60717;DHT22;46566;52.700;6.192;2022-11-15T04:08:38;8.60;99.90
60717;DHT22;46566;52.700;6.192;2022-11-15T04:11:22;8.60;99.90
60717;DHT22;46566;52.700;6.192;2022-11-15T04:14:06;8.70;99.90
60717;DHT22;46566;52.700;6.192;2022-11-15T04:16:50;8.70;99.90
60717;DHT22;46566;52.700;6.192;2022-11-15T04:19:35;8.70;99.90
60717;DHT22;46566;52.700;6.192;2022-11-15T04:22:38;8.70;99.90
60717;DHT22;46566;52.700;6.192;2022-11-15T04:25:42;8.70;99.90
60717;DHT22;46566;52.700;6.192;2022-11-15T04:28:27;8.80;99.90
60717;DHT22;46566;52.700;6.192;2022-11-15T04:31:11;8.80;99.90
60717;DHT22;46566;52.700;6.192;2022-11-15T04:33:56;8.90;99.90
60717;DHT22;46566;52.700;6.192;2022-11-15T04:36:40;8.90;99.90
60717;DHT22;46566;52.700;6.192;2022-11-15T04:39:43;8.90;99.90
60717;DHT22;46566;52.700;6.192;2022-11-15T04:42:27;9.00;99.90
60717;DHT22;46566;52.700;6.192;2022-11-15T04:45:11;9.00;99.90
60717;DHT22;46566;52.700;6.192;2022-11-15T04:47:56;9.00;99.90
60717;DHT22;46566;52.700;6.192;2022-11-15T04:53:24;9.10;99.90
60717;DHT22;46566;52.700;6.192;2022-11-15T04:56:09;9.10;99.90
60717;DHT22;46566;52.700;6.192;2022-11-15T04:58:53;9.10;99.90
60717;DHT22;46566;52.700;6.192;2022-11-15T05:01:37;9.20;99.90
60717;DHT22;46566;52.700;6.192;2022-11-15T05:04:21;9.20;99.90
60717;DHT22;46566;52.700;6.192;2022-11-15T05:07:06;9.20;99.90
60717;DHT22;46566;52.700;6.192;2022-11-15T05:09:50;9.20;99.90
60717;DHT22;46566;52.700;6.192;2022-11-15T05:12:34;9.20;99.90
60717;DHT22;46566;52.700;6.192;2022-11-15T05:15:19;9.20;99.90
60717;DHT22;46566;52.700;6.192;2022-11-15T05:18:03;9.30;99.90
60717;DHT22;46566;52.700;6.192;2022-11-15T05:20:47;9.30;99.90
60717;DHT22;46566;52.700;6.192;2022-11-15T05:23:31;9.30;99.90
60717;DHT22;46566;52.700;6.192;2022-11-15T05:26:17;9.40;99.90
60717;DHT22;46566;52.700;6.192;2022-11-15T05:29:03;9.40;99.90
60717;DHT22;46566;52.700;6.192;2022-11-15T05:31:48;9.40;99.90
60717;DHT22;46566;52.700;6.192;2022-11-15T05:34:35;9.50;99.90
60717;DHT22;46566;52.700;6.192;2022-11-15T05:37:19;9.50;99.90
60717;DHT22;46566;52.700;6.192;2022-11-15T05:40:04;9.50;99.90
60717;DHT22;46566;52.700;6.192;2022-11-15T05:42:48;9.50;99.90
60717;DHT22;46566;52.700;6.192;2022-11-15T05:45:33;9.60;99.90
60717;DHT22;46566;52.700;6.192;2022-11-15T05:48:19;9.60;99.90
60717;DHT22;46566;52.700;6.192;2022-11-15T05:51:04;9.60;99.90
60717;DHT22;46566;52.700;6.192;2022-11-15T05:53:51;9.70;99.90
60717;DHT22;46566;52.700;6.192;2022-11-15T05:56:36;9.70;99.90
60717;DHT22;46566;52.700;6.192;2022-11-15T05:59:20;9.70;99.90
60717;DHT22;46566;52.700;6.192;2022-11-15T06:02:05;9.80;99.90
60717;DHT22;46566;52.700;6.192;2022-11-15T06:04:49;9.80;99.90
60717;DHT22;46566;52.700;6.192;2022-11-15T06:07:33;9.80;99.90
60717;DHT22;46566;52.700;6.192;2022-11-15T06:10:17;9.80;99.90
60717;DHT22;46566;52.700;6.192;2022-11-15T06:13:03;9.90;99.90
60717;DHT22;46566;52.700;6.192;2022-11-15T06:15:48;9.90;99.90
60717;DHT22;46566;52.700;6.192;2022-11-15T06:18:33;9.90;99.90
60717;DHT22;46566;52.700;6.192;2022-11-15T06:21:17;9.90;99.90
60717;DHT22;46566;52.700;6.192;2022-11-15T06:24:02;10.00;99.90
60717;DHT22;46566;52.700;6.192;2022-11-15T06:26:46;10.00;99.90
60717;DHT22;46566;52.700;6.192;2022-11-15T06:29:30;10.00;99.90
60717;DHT22;46566;52.700;6.192;2022-11-15T06:32:15;10.00;99.90
60717;DHT22;46566;52.700;6.192;2022-11-15T06:34:59;10.00;99.90
60717;DHT22;46566;52.700;6.192;2022-11-15T06:37:43;10.10;99.90
60717;DHT22;46566;52.700;6.192;2022-11-15T06:40:27;10.10;99.90
60717;DHT22;46566;52.700;6.192;2022-11-15T06:43:11;10.10;99.90
60717;DHT22;46566;52.700;6.192;2022-11-15T06:45:58;10.10;99.90
60717;DHT22;46566;52.700;6.192;2022-11-15T06:48:43;10.10;99.90
60717;DHT22;46566;52.700;6.192;2022-11-15T06:51:27;10.10;99.90
60717;DHT22;46566;52.700;6.192;2022-11-15T06:54:11;10.10;99.90
60717;DHT22;46566;52.700;6.192;2022-11-15T06:56:55;10.10;99.90
60717;DHT22;46566;52.700;6.192;2022-11-15T06:59:39;10.10;99.90
60717;DHT22;46566;52.700;6.192;2022-11-15T07:02:24;10.10;99.90
60717;DHT22;46566;52.700;6.192;2022-11-15T07:05:09;10.20;99.90
60717;DHT22;46566;52.700;6.192;2022-11-15T07:07:55;10.20;99.90
60717;DHT22;46566;52.700;6.192;2022-11-15T07:10:39;10.20;99.90
60717;DHT22;46566;52.700;6.192;2022-11-15T07:13:27;10.20;99.90
60717;DHT22;46566;52.700;6.192;2022-11-15T07:16:12;10.30;99.90
60717;DHT22;46566;52.700;6.192;2022-11-15T07:18:56;10.30;99.90
60717;DHT22;46566;52.700;6.192;2022-11-15T07:21:41;10.30;99.90
60717;DHT22;46566;52.700;6.192;2022-11-15T07:24:25;10.30;99.90
60717;DHT22;46566;52.700;6.192;2022-11-15T07:27:09;10.30;99.90
60717;DHT22;46566;52.700;6.192;2022-11-15T07:29:54;10.30;99.90
60717;DHT22;46566;52.700;6.192;2022-11-15T07:32:38;10.30;99.90
60717;DHT22;46566;52.700;6.192;2022-11-15T07:35:22;10.40;99.90
60717;DHT22;46566;52.700;6.192;2022-11-15T07:38:07;10.40;99.90
60717;DHT22;46566;52.700;6.192;2022-11-15T07:41:00;10.40;99.90
60717;DHT22;46566;52.700;6.192;2022-11-15T07:43:44;10.40;99.90
60717;DHT22;46566;52.700;6.192;2022-11-15T07:46:28;10.40;99.90
60717;DHT22;46566;52.700;6.192;2022-11-15T07:49:12;10.40;99.90
60717;DHT22;46566;52.700;6.192;2022-11-15T07:51:57;10.40;99.90
60717;DHT22;46566;52.700;6.192;2022-11-15T07:54:41;10.40;99.90
60717;DHT22;46566;52.700;6.192;2022-11-15T07:57:25;10.40;99.90
60717;DHT22;46566;52.700;6.192;2022-11-15T08:00:10;10.50;99.90
60717;DHT22;46566;52.700;6.192;2022-11-15T08:03:21;10.50;99.90
60717;DHT22;46566;52.700;6.192;2022-11-15T08:06:06;10.50;99.90
60717;DHT22;46566;52.700;6.192;2022-11-15T08:08:50;10.50;99.90
60717;DHT22;46566;52.700;6.192;2022-11-15T08:11:37;10.60;99.90
60717;DHT22;46566;52.700;6.192;2022-11-15T08:14:21;10.60;99.90
60717;DHT22;46566;52.700;6.192;2022-11-15T08:17:06;10.60;99.90
60717;DHT22;46566;52.700;6.192;2022-11-15T08:25:59;10.80;99.90
60717;DHT22;46566;52.700;6.192;2022-11-15T08:28:47;10.80;99.90
60717;DHT22;46566;52.700;6.192;2022-11-15T08:37:23;10.80;99.90
60717;DHT22;46566;52.700;6.192;2022-11-15T08:40:08;10.90;99.90
60717;DHT22;46566;52.700;6.192;2022-11-15T08:42:52;10.90;99.90
60717;DHT22;46566;52.700;6.192;2022-11-15T08:45:36;10.90;99.90
60717;DHT22;46566;52.700;6.192;2022-11-15T08:48:20;10.90;99.90
60717;DHT22;46566;52.700;6.192;2022-11-15T08:51:05;10.90;99.90
60717;DHT22;46566;52.700;6.192;2022-11-15T08:53:49;11.00;99.90
60717;DHT22;46566;52.700;6.192;2022-11-15T08:56:33;11.00;99.90
60717;DHT22;46566;52.700;6.192;2022-11-15T08:59:17;11.00;99.90
60717;DHT22;46566;52.700;6.192;2022-11-15T09:02:02;11.00;99.90
60717;DHT22;46566;52.700;6.192;2022-11-15T09:04:47;11.00;99.90
60717;DHT22;46566;52.700;6.192;2022-11-15T09:07:31;11.00;99.90
60717;DHT22;46566;52.700;6.192;2022-11-15T09:10:16;11.10;99.90
60717;DHT22;46566;52.700;6.192;2022-11-15T09:13:00;11.10;99.90
60717;DHT22;46566;52.700;6.192;2022-11-15T09:15:45;11.10;99.90
60717;DHT22;46566;52.700;6.192;2022-11-15T09:18:29;11.10;99.90
60717;DHT22;46566;52.700;6.192;2022-11-15T09:21:13;11.10;99.90
60717;DHT22;46566;52.700;6.192;2022-11-15T09:23:58;11.20;99.90
60717;DHT22;46566;52.700;6.192;2022-11-15T09:26:42;11.20;99.90
60717;DHT22;46566;52.700;6.192;2022-11-15T09:29:27;11.20;99.90
60717;DHT22;46566;52.700;6.192;2022-11-15T09:32:11;11.20;99.90
60717;DHT22;46566;52.700;6.192;2022-11-15T09:34:55;11.20;99.90
60717;DHT22;46566;52.700;6.192;2022-11-15T09:37:40;11.20;99.90
60717;DHT22;46566;52.700;6.192;2022-11-15T09:40:24;11.20;99.90
60717;DHT22;46566;52.700;6.192;2022-11-15T09:43:31;11.20;99.90
60717;DHT22;46566;52.700;6.192;2022-11-15T09:49:29;11.20;99.90
60717;DHT22;46566;52.700;6.192;2022-11-15T09:52:19;11.30;99.90
60717;DHT22;46566;52.700;6.192;2022-11-15T09:54:48;11.30;99.90
60717;DHT22;46566;52.700;6.192;2022-11-15T10:00:19;11.30;99.90
60717;DHT22;46566;52.700;6.192;2022-11-15T10:03:06;11.40;99.90
60717;DHT22;46566;52.700;6.192;2022-11-15T10:05:39;11.30;99.90
60717;DHT22;46566;52.700;6.192;2022-11-15T10:11:33;11.40;99.90
60717;DHT22;46566;52.700;6.192;2022-11-15T10:19:35;11.50;99.90
60717;DHT22;46566;52.700;6.192;2022-11-15T10:22:17;11.50;99.90
60717;DHT22;46566;52.700;6.192;2022-11-15T10:24:45;11.50;99.90
60717;DHT22;46566;52.700;6.192;2022-11-15T10:27:13;11.60;99.90
60717;DHT22;46566;52.700;6.192;2022-11-15T10:29:48;11.50;99.90
60717;DHT22;46566;52.700;6.192;2022-11-15T10:32:17;11.60;99.90
60717;DHT22;46566;52.700;6.192;2022-11-15T10:34:43;11.60;99.90
60717;DHT22;46566;52.700;6.192;2022-11-15T10:37:09;11.60;99.90
60717;DHT22;46566;52.700;6.192;2022-11-15T10:39:35;11.70;99.90
60717;DHT22;46566;52.700;6.192;2022-11-15T10:42:28;11.70;99.90
60717;DHT22;46566;52.700;6.192;2022-11-15T10:44:54;11.70;99.90
60717;DHT22;46566;52.700;6.192;2022-11-15T10:47:30;11.70;99.90
60717;DHT22;46566;52.700;6.192;2022-11-15T10:50:05;11.70;99.90
60717;DHT22;46566;52.700;6.192;2022-11-15T10:52:34;11.70;99.90
60717;DHT22;46566;52.700;6.192;2022-11-15T10:55:05;11.70;99.90
60717;DHT22;46566;52.700;6.192;2022-11-15T10:57:36;11.70;99.90
60717;DHT22;46566;52.700;6.192;2022-11-15T11:00:26;11.80;99.90
60717;DHT22;46566;52.700;6.192;2022-11-15T11:05:34;11.90;99.90
60717;DHT22;46566;52.700;6.192;2022-11-15T11:10:34;12.10;99.90
60717;DHT22;46566;52.700;6.192;2022-11-15T11:13:26;12.10;99.90
60717;DHT22;46566;52.700;6.192;2022-11-15T11:16:20;12.10;99.90
60717;DHT22;46566;52.700;6.192;2022-11-15T11:19:08;12.30;99.90
60717;DHT22;46566;52.700;6.192;2022-11-15T11:22:00;12.30;99.90
60717;DHT22;46566;52.700;6.192;2022-11-15T11:30:17;12.40;99.90
60717;DHT22;46566;52.700;6.192;2022-11-15T11:33:41;12.40;99.90
60717;DHT22;46566;52.700;6.192;2022-11-15T11:39:05;12.50;99.90
60717;DHT22;46566;52.700;6.192;2022-11-15T11:41:47;12.60;99.90
60717;DHT22;46566;52.700;6.192;2022-11-15T11:47:01;12.70;99.90
60717;DHT22;46566;52.700;6.192;2022-11-15T11:49:42;12.70;99.90
60717;DHT22;46566;52.700;6.192;2022-11-15T11:54:55;12.60;99.90
60717;DHT22;46566;52.700;6.192;2022-11-15T11:57:31;12.50;99.90
60717;DHT22;46566;52.700;6.192;2022-11-15T12:00:25;12.60;99.90
60717;DHT22;46566;52.700;6.192;2022-11-15T12:06:01;12.90;99.90
60717;DHT22;46566;52.700;6.192;2022-11-15T12:08:50;13.00;99.90
60717;DHT22;46566;52.700;6.192;2022-11-15T12:13:43;13.00;99.90
60717;DHT22;46566;52.700;6.192;2022-11-15T12:18:46;12.90;99.90
60717;DHT22;46566;52.700;6.192;2022-11-15T12:23:49;12.80;99.90
60717;DHT22;46566;52.700;6.192;2022-11-15T12:26:20;12.70;99.90
60717;DHT22;46566;52.700;6.192;2022-11-15T12:28:57;12.80;99.90
60717;DHT22;46566;52.700;6.192;2022-11-15T12:33:57;12.90;99.90
60717;DHT22;46566;52.700;6.192;2022-11-15T12:43:51;12.80;99.90
60717;DHT22;46566;52.700;6.192;2022-11-15T12:49:43;12.70;99.90
60717;DHT22;46566;52.700;6.192;2022-11-15T12:52:09;12.70;99.90
60717;DHT22;46566;52.700;6.192;2022-11-15T12:55:02;12.70;99.90
60717;DHT22;46566;52.700;6.192;2022-11-15T12:57:35;12.70;99.90
60717;DHT22;46566;52.700;6.192;2022-11-15T13:00:36;12.70;99.90
60717;DHT22;46566;52.700;6.192;2022-11-15T13:03:18;12.70;99.90
60717;DHT22;46566;52.700;6.192;2022-11-15T13:08:09;12.80;99.90
60717;DHT22;46566;52.700;6.192;2022-11-15T13:10:55;12.80;99.90
60717;DHT22;46566;52.700;6.192;2022-11-15T13:13:44;12.70;99.90
60717;DHT22;46566;52.700;6.192;2022-11-15T13:16:11;12.70;99.90
60717;DHT22;46566;52.700;6.192;2022-11-15T13:18:43;12.70;99.90
60717;DHT22;46566;52.700;6.192;2022-11-15T13:21:21;12.60;99.90
60717;DHT22;46566;52.700;6.192;2022-11-15T13:24:11;12.60;99.90
60717;DHT22;46566;52.700;6.192;2022-11-15T13:26:39;12.60;99.90
60717;DHT22;46566;52.700;6.192;2022-11-15T13:29:15;12.60;99.90
60717;DHT22;46566;52.700;6.192;2022-11-15T13:31:43;12.60;99.90
60717;DHT22;46566;52.700;6.192;2022-11-15T13:36:49;12.60;99.90
60717;DHT22;46566;52.700;6.192;2022-11-15T13:39:30;12.60;99.90
60717;DHT22;46566;52.700;6.192;2022-11-15T13:41:56;12.60;99.90
60717;DHT22;46566;52.700;6.192;2022-11-15T13:44:27;12.50;99.90
60717;DHT22;46566;52.700;6.192;2022-11-15T13:47:15;12.50;99.90
60717;DHT22;46566;52.700;6.192;2022-11-15T13:49:41;12.40;99.90
60717;DHT22;46566;52.700;6.192;2022-11-15T13:52:11;12.40;99.90
60717;DHT22;46566;52.700;6.192;2022-11-15T13:54:43;12.40;99.90
60717;DHT22;46566;52.700;6.192;2022-11-15T13:57:17;12.40;99.90
60717;DHT22;46566;52.700;6.192;2022-11-15T13:59:47;12.30;99.90
60717;DHT22;46566;52.700;6.192;2022-11-15T14:02:18;12.30;99.90
60717;DHT22;46566;52.700;6.192;2022-11-15T14:04:51;12.30;99.90
60717;DHT22;46566;52.700;6.192;2022-11-15T14:07:20;12.20;99.90
60717;DHT22;46566;52.700;6.192;2022-11-15T14:09:46;12.20;99.90
60717;DHT22;46566;52.700;6.192;2022-11-15T14:14:47;12.20;99.90
60717;DHT22;46566;52.700;6.192;2022-11-15T14:19:55;12.10;99.90
60717;DHT22;46566;52.700;6.192;2022-11-15T14:22:23;12.10;99.90
60717;DHT22;46566;52.700;6.192;2022-11-15T14:27:35;12.10;99.90
60717;DHT22;46566;52.700;6.192;2022-11-15T14:30:01;12.00;99.90
60717;DHT22;46566;52.700;6.192;2022-11-15T14:32:29;12.00;99.90
60717;DHT22;46566;52.700;6.192;2022-11-15T14:35:00;12.00;99.90
60717;DHT22;46566;52.700;6.192;2022-11-15T14:37:31;12.00;99.90
60717;DHT22;46566;52.700;6.192;2022-11-15T14:39:59;12.00;99.90
60717;DHT22;46566;52.700;6.192;2022-11-15T14:42:25;11.90;99.90
60717;DHT22;46566;52.700;6.192;2022-11-15T14:44:51;11.90;99.90
60717;DHT22;46566;52.700;6.192;2022-11-15T14:47:17;11.90;99.90
60717;DHT22;46566;52.700;6.192;2022-11-15T14:49:44;11.90;99.90
60717;DHT22;46566;52.700;6.192;2022-11-15T14:52:26;11.80;99.90
60717;DHT22;46566;52.700;6.192;2022-11-15T14:54:53;11.80;99.90
60717;DHT22;46566;52.700;6.192;2022-11-15T14:57:19;11.80;99.90
60717;DHT22;46566;52.700;6.192;2022-11-15T14:59:45;11.80;99.90
60717;DHT22;46566;52.700;6.192;2022-11-15T15:02:22;11.70;99.90
60717;DHT22;46566;52.700;6.192;2022-11-15T15:04:48;11.70;99.90
60717;DHT22;46566;52.700;6.192;2022-11-15T15:07:14;11.70;99.90
60717;DHT22;46566;52.700;6.192;2022-11-15T15:09:41;11.60;99.90
60717;DHT22;46566;52.700;6.192;2022-11-15T15:12:21;11.60;99.90
60717;DHT22;46566;52.700;6.192;2022-11-15T15:14:49;11.60;99.90
60717;DHT22;46566;52.700;6.192;2022-11-15T15:17:16;11.60;99.90
60717;DHT22;46566;52.700;6.192;2022-11-15T15:19:42;11.60;99.90
60717;DHT22;46566;52.700;6.192;2022-11-15T15:22:16;11.50;99.90
60717;DHT22;46566;52.700;6.192;2022-11-15T15:24:43;11.50;99.90
60717;DHT22;46566;52.700;6.192;2022-11-15T15:27:09;11.50;99.90
60717;DHT22;46566;52.700;6.192;2022-11-15T15:29:36;11.40;99.90
60717;DHT22;46566;52.700;6.192;2022-11-15T15:32:02;11.40;99.90
60717;DHT22;46566;52.700;6.192;2022-11-15T15:34:28;11.40;99.90
60717;DHT22;46566;52.700;6.192;2022-11-15T15:37:21;11.40;99.90
60717;DHT22;46566;52.700;6.192;2022-11-15T15:39:51;11.30;99.90
60717;DHT22;46566;52.700;6.192;2022-11-15T15:42:18;11.30;99.90
60717;DHT22;46566;52.700;6.192;2022-11-15T15:44:45;11.30;99.90
60717;DHT22;46566;52.700;6.192;2022-11-15T15:47:18;11.20;99.90
60717;DHT22;46566;52.700;6.192;2022-11-15T15:49:45;11.20;99.90
60717;DHT22;46566;52.700;6.192;2022-11-15T15:52:10;11.20;99.90
60717;DHT22;46566;52.700;6.192;2022-11-15T15:54:37;11.20;99.90
60717;DHT22;46566;52.700;6.192;2022-11-15T15:57:03;11.20;99.90
60717;DHT22;46566;52.700;6.192;2022-11-15T15:59:30;11.20;99.90
60717;DHT22;46566;52.700;6.192;2022-11-15T16:01:56;11.20;99.90
60717;DHT22;46566;52.700;6.192;2022-11-15T16:04:22;11.20;99.90
60717;DHT22;46566;52.700;6.192;2022-11-15T16:06:48;11.20;99.90
60717;DHT22;46566;52.700;6.192;2022-11-15T16:09:18;11.30;99.90
60717;DHT22;46566;52.700;6.192;2022-11-15T16:11:45;11.30;99.90
60717;DHT22;46566;52.700;6.192;2022-11-15T16:14:11;11.30;99.90
60717;DHT22;46566;52.700;6.192;2022-11-15T16:16:37;11.30;99.90
60717;DHT22;46566;52.700;6.192;2022-11-15T16:19:04;11.40;99.90
60717;DHT22;46566;52.700;6.192;2022-11-15T16:21:30;11.40;99.90
60717;DHT22;46566;52.700;6.192;2022-11-15T16:23:56;11.40;99.90
60717;DHT22;46566;52.700;6.192;2022-11-15T16:26:27;11.40;99.90
60717;DHT22;46566;52.700;6.192;2022-11-15T16:28:53;11.40;99.90
60717;DHT22;46566;52.700;6.192;2022-11-15T16:31:19;11.40;99.90
60717;DHT22;46566;52.700;6.192;2022-11-15T16:33:48;11.50;99.90
60717;DHT22;46566;52.700;6.192;2022-11-15T16:36:21;11.40;99.90
60717;DHT22;46566;52.700;6.192;2022-11-15T16:38:47;11.50;99.90
60717;DHT22;46566;52.700;6.192;2022-11-15T16:41:14;11.40;99.90
60717;DHT22;46566;52.700;6.192;2022-11-15T16:43:40;11.40;99.90
60717;DHT22;46566;52.700;6.192;2022-11-15T16:46:14;11.40;99.90
60717;DHT22;46566;52.700;6.192;2022-11-15T16:48:41;11.40;99.90
60717;DHT22;46566;52.700;6.192;2022-11-15T16:51:06;11.40;99.90
60717;DHT22;46566;52.700;6.192;2022-11-15T16:53:32;11.40;99.90
60717;DHT22;46566;52.700;6.192;2022-11-15T16:55:58;11.40;99.90
60717;DHT22;46566;52.700;6.192;2022-11-15T16:58:23;11.40;99.90
60717;DHT22;46566;52.700;6.192;2022-11-15T17:00:54;11.40;99.90
60717;DHT22;46566;52.700;6.192;2022-11-15T17:03:23;11.40;99.90
60717;DHT22;46566;52.700;6.192;2022-11-15T17:05:50;11.40;99.90
60717;DHT22;46566;52.700;6.192;2022-11-15T17:08:15;11.40;99.90
60717;DHT22;46566;52.700;6.192;2022-11-15T17:10:41;11.40;99.90
60717;DHT22;46566;52.700;6.192;2022-11-15T17:13:16;11.40;99.90
60717;DHT22;46566;52.700;6.192;2022-11-15T17:15:42;11.40;99.90
60717;DHT22;46566;52.700;6.192;2022-11-15T17:18:11;11.40;99.90
60717;DHT22;46566;52.700;6.192;2022-11-15T17:20:40;11.40;99.90
60717;DHT22;46566;52.700;6.192;2022-11-15T17:23:11;11.40;99.90
60717;DHT22;46566;52.700;6.192;2022-11-15T17:25:38;11.40;99.90
60717;DHT22;46566;52.700;6.192;2022-11-15T17:28:04;11.50;99.90
60717;DHT22;46566;52.700;6.192;2022-11-15T17:30:30;11.40;99.90
60717;DHT22;46566;52.700;6.192;2022-11-15T17:32:55;11.40;99.90
60717;DHT22;46566;52.700;6.192;2022-11-15T17:35:21;11.40;99.90
60717;DHT22;46566;52.700;6.192;2022-11-15T17:37:47;11.50;99.90
60717;DHT22;46566;52.700;6.192;2022-11-15T17:40:13;11.50;99.90
60717;DHT22;46566;52.700;6.192;2022-11-15T17:42:41;11.50;99.90
60717;DHT22;46566;52.700;6.192;2022-11-15T17:45:08;11.50;99.90
60717;DHT22;46566;52.700;6.192;2022-11-15T17:47:35;11.50;99.90
60717;DHT22;46566;52.700;6.192;2022-11-15T17:50:01;11.50;99.90
60717;DHT22;46566;52.700;6.192;2022-11-15T17:52:26;11.50;99.90
60717;DHT22;46566;52.700;6.192;2022-11-15T17:54:52;11.50;99.90
60717;DHT22;46566;52.700;6.192;2022-11-15T17:57:18;11.50;99.90
60717;DHT22;46566;52.700;6.192;2022-11-15T17:59:43;11.50;99.90
60717;DHT22;46566;52.700;6.192;2022-11-15T18:02:09;11.60;99.90
60717;DHT22;46566;52.700;6.192;2022-11-15T18:04:35;11.60;99.90
60717;DHT22;46566;52.700;6.192;2022-11-15T18:07:00;11.60;99.90
60717;DHT22;46566;52.700;6.192;2022-11-15T18:09:26;11.60;99.90
60717;DHT22;46566;52.700;6.192;2022-11-15T18:11:52;11.60;99.90
60717;DHT22;46566;52.700;6.192;2022-11-15T18:14:18;11.60;99.90
60717;DHT22;46566;52.700;6.192;2022-11-15T18:16:45;11.60;99.90
60717;DHT22;46566;52.700;6.192;2022-11-15T18:19:10;11.60;99.90
60717;DHT22;46566;52.700;6.192;2022-11-15T18:21:39;11.60;99.90
60717;DHT22;46566;52.700;6.192;2022-11-15T18:24:31;11.70;99.90
60717;DHT22;46566;52.700;6.192;2022-11-15T18:26:58;11.60;99.90
60717;DHT22;46566;52.700;6.192;2022-11-15T18:29:24;11.70;99.90
60717;DHT22;46566;52.700;6.192;2022-11-15T18:31:51;11.70;99.90
60717;DHT22;46566;52.700;6.192;2022-11-15T18:34:21;11.70;99.90
60717;DHT22;46566;52.700;6.192;2022-11-15T18:36:49;11.70;99.90
60717;DHT22;46566;52.700;6.192;2022-11-15T18:39:15;11.70;99.90
60717;DHT22;46566;52.700;6.192;2022-11-15T18:41:42;11.70;99.90
60717;DHT22;46566;52.700;6.192;2022-11-15T18:44:08;11.70;99.90
60717;DHT22;46566;52.700;6.192;2022-11-15T18:46:34;11.70;99.90
60717;DHT22;46566;52.700;6.192;2022-11-15T18:49:01;11.70;99.90
60717;DHT22;46566;52.700;6.192;2022-11-15T18:51:29;11.70;99.90
60717;DHT22;46566;52.700;6.192;2022-11-15T18:53:57;11.70;99.90